Copper Center, AK (99573)

3:18 AM AKDT on July 25, 2016 (GMT -0800)
Klutina River | | Change Station

Elev 1100 ft 61.95 °N, 145.32 °W | Updated 9 seconds ago

Light Rain
Light Rain
51.0 °F
Feels Like 51.0 °F
N
1.0
Wind Variable Wind from SE
Gusts 10.0 mph

Today
High -- | Low -- °F
--% Chance of Precip.
Yesterday
High -- | Low -- °F
Precip. -- in
Pressure 29.82 in
Visibility 10.0 miles
Clouds Overcast 6500 ft
Dew Point 50 °F
Humidity 97%
Rainfall 0.09 in
Snow Depth Not available.
4:51 AM 10:42 PM
Waning Gibbous, 67% visible
METAR PAGK 251053Z AUTO 16011G20KT 10SM -RA OVC065 10/09 A2981 RMK SLP096 P0001 T01000094 TSNO $ VIA AUTODIAL
Pressure 29.82 in
Visibility 10.0 miles
Clouds Overcast 6500 ft
Dew Point 50 °F
Humidity 97%
Rainfall 0.09 in
Snow Depth Not available.
4:51 AM 10:42 PM
Waning Gibbous, 67% visible
METAR PAGK 251053Z AUTO 16011G20KT 10SM -RA OVC065 10/09 A2981 RMK SLP096 P0001 T01000094 TSNO $ VIA AUTODIAL

10-Day Weather Forecast

Almanac

Astronomy

Jul. 25, 2016 Rise Set
Actual Time
Civil Twilight
Nautical Twilight
Astronomical Twilight
Moon
Length of Visible Light
Length of Day
Tomorrow will be .
, % of the Moon is Illuminated

Today's Extremes

State Highs State Lows

Community

WunderPhotos

Upload Photos

1,927,291 photos uploaded!

WunderBlog® & News

Nearby

Air Quality

  Air Quality AQ Index Pollutant
Not available.

Snow Depth

Station Depth Elevation

Earthquake Activity

City Distance Mag. Time & Date
Minimum magnitude displayed is 2.5.

Coastal Water Temperatures

Place Temperature

Stations

Nearby Weather Stations

Station Location Temp. Windchill Dew Point Humidity Wind Precip. Elev Updated Type
                   

Watches & Warnings

There are currently no watches in effect.